Time;durP1;ratioP1;P1;durP2;ratioP2;P2;SDS_P1;SDS_P2;PMS_P1;PMS_P2;Temp;Humidity;BMP_temperature;BMP_pressure;BME280_temperature;BME280_humidity;BME280_pressure;Samples;Min_cycle;Max_cycle;Signal;HPM_P1;HPM_P2
2023/06/14 00:00:42;;;;;;;1.17;0.70;;;18.20;81.20;;;;;;5006410;28;20042;-70
2023/06/14 00:03:11;;;;;;;1.90;0.88;;;18.10;81.20;;;;;;5005770;28;20420;-71
2023/06/14 00:05:43;;;;;;;1.52;0.80;;;18.10;81.20;;;;;;5004682;28;20045;-71
2023/06/14 00:08:09;;;;;;;2.72;0.85;;;18.10;81.10;;;;;;5003785;28;20046;-71
2023/06/14 00:10:36;;;;;;;2.05;0.80;;;18.10;81.30;;;;;;5005996;28;20519;-71
2023/06/14 00:13:05;;;;;;;1.65;0.82;;;18.00;81.30;;;;;;5005437;28;20046;-71
2023/06/14 00:15:34;;;;;;;1.38;0.93;;;18.00;81.30;;;;;;5005820;28;20049;-71
2023/06/14 00:18:03;;;;;;;2.15;1.02;;;18.00;80.90;;;;;;5005687;28;20050;-72
2023/06/14 00:20:32;;;;;;;1.23;1.13;;;17.90;81.50;;;;;;5006316;28;20117;-71
2023/06/14 00:22:58;;;;;;;1.92;1.25;;;17.90;81.50;;;;;;5004597;28;20056;-70
2023/06/14 00:25:27;;;;;;;1.70;0.88;;;17.90;81.60;;;;;;5004875;28;20041;-71
2023/06/14 00:27:54;;;;;;;1.13;0.85;;;17.80;81.70;;;;;;5005520;28;20281;-71
2023/06/14 00:30:20;;;;;;;1.00;0.70;;;17.80;81.70;;;;;;5005330;28;20351;-70
2023/06/14 00:32:46;;;;;;;0.88;0.68;;;17.70;81.70;;;;;;5004162;28;20492;-72
2023/06/14 00:35:13;;;;;;;0.90;0.90;;;17.70;82.00;;;;;;5004261;28;20121;-70
2023/06/14 00:37:39;;;;;;;2.05;1.02;;;17.70;82.10;;;;;;5004402;28;20053;-70
2023/06/14 00:40:05;;;;;;;1.13;1.00;;;17.70;82.30;;;;;;5004166;28;20060;-71
2023/06/14 00:42:31;;;;;;;1.75;0.82;;;17.60;82.30;;;;;;5005272;28;20046;-71
2023/06/14 00:44:57;;;;;;;1.27;0.80;;;17.60;82.50;;;;;;5005727;28;20042;-71
2023/06/14 00:47:22;;;;;;;0.98;0.88;;;17.60;82.50;;;;;;5003974;28;20121;-70
2023/06/14 00:49:50;;;;;;;1.17;0.80;;;17.60;82.60;;;;;;5005512;28;20072;-71
2023/06/14 00:52:17;;;;;;;2.58;0.80;;;17.50;82.70;;;;;;5005030;28;20401;-70
2023/06/14 00:54:43;;;;;;;7.28;1.30;;;17.50;83.00;;;;;;5002893;28;20098;-70
2023/06/14 00:57:10;;;;;;;2.17;0.93;;;17.40;83.00;;;;;;5004641;28;20048;-71
2023/06/14 00:59:48;;;;;;;1.30;0.90;;;17.40;83.20;;;;;;5003944;28;20555;-70
2023/06/14 01:02:17;;;;;;;0.98;0.70;;;17.40;83.30;;;;;;4989513;28;20081;-70
2023/06/14 01:04:47;;;;;;;1.08;0.80;;;17.40;83.40;;;;;;4985239;28;20400;-71
2023/06/14 01:07:51;;;;;;;0.60;0.60;;;17.30;83.60;;;;;;4998104;28;20480;-71
2023/06/14 01:10:32;;;;;;;3.30;0.80;;;17.30;84.10;;;;;;4986775;28;20050;-71
2023/06/14 01:13:19;;;;;;;1.48;0.88;;;17.20;83.90;;;;;;5004043;28;20120;-71
2023/06/14 01:15:46;;;;;;;7.00;1.15;;;17.20;84.10;;;;;;5005048;28;20089;-71
2023/06/14 01:18:17;;;;;;;1.23;0.80;;;17.20;84.20;;;;;;4986814;28;20050;-71
2023/06/14 01:20:50;;;;;;;2.15;1.00;;;17.10;84.20;;;;;;5003633;28;20519;-71
2023/06/14 01:23:20;;;;;;;1.75;1.33;;;17.10;84.40;;;;;;5002083;28;20093;-70
2023/06/14 01:25:47;;;;;;;5.22;1.08;;;17.10;84.80;;;;;;5004112;28;20053;-71
2023/06/14 01:28:16;;;;;;;0.63;0.63;;;17.00;84.70;;;;;;5002991;28;20056;-71
2023/06/14 01:30:47;;;;;;;1.25;0.85;;;17.00;84.80;;;;;;4984920;28;20701;-70
2023/06/14 01:33:14;;;;;;;1.67;0.80;;;17.00;85.00;;;;;;4985184;28;20133;-71
2023/06/14 01:35:51;;;;;;;0.98;0.60;;;16.90;85.10;;;;;;4984058;28;20281;-71
2023/06/14 01:38:23;;;;;;;1.60;1.25;;;16.90;86.00;;;;;;4984262;28;20121;-71
2023/06/14 01:40:50;;;;;;;0.88;0.88;;;16.90;85.70;;;;;;4984046;28;20047;-71
2023/06/14 01:43:16;;;;;;;0.50;0.50;;;16.90;85.60;;;;;;4995683;28;20056;-71
2023/06/14 01:45:44;;;;;;;1.80;1.00;;;16.80;85.60;;;;;;5003392;28;20045;-71
2023/06/14 01:48:09;;;;;;;1.20;0.90;;;16.80;85.70;;;;;;5004752;28;20061;-70
2023/06/14 01:50:35;;;;;;;1.08;0.80;;;16.80;86.60;;;;;;5004691;28;20076;-70
2023/06/14 01:53:00;;;;;;;1.63;1.05;;;16.80;86.00;;;;;;5002056;28;20086;-71
2023/06/14 01:55:26;;;;;;;1.05;0.88;;;16.70;86.10;;;;;;5005110;28;20054;-71
2023/06/14 01:57:53;;;;;;;0.60;0.60;;;16.70;86.20;;;;;;5003432;28;20054;-71
2023/06/14 02:00:19;;;;;;;1.15;0.90;;;16.70;86.40;;;;;;5003097;28;20034;-70
2023/06/14 02:02:48;;;;;;;2.70;0.90;;;16.70;86.60;;;;;;5004545;28;20161;-71
2023/06/14 02:05:18;;;;;;;2.60;0.80;;;16.60;86.70;;;;;;5004120;28;20048;-70
2023/06/14 02:07:44;;;;;;;1.10;1.00;;;16.60;86.90;;;;;;5002427;28;20049;-71
2023/06/14 02:10:10;;;;;;;1.10;1.10;;;16.60;87.00;;;;;;5004152;28;20046;-70
2023/06/14 02:12:35;;;;;;;1.15;0.90;;;16.60;87.20;;;;;;5003883;28;20558;-71
2023/06/14 02:15:01;;;;;;;0.85;0.63;;;16.50;87.30;;;;;;5004130;28;20068;-71
2023/06/14 02:17:26;;;;;;;1.23;0.60;;;16.50;87.40;;;;;;4996515;28;20069;-70
2023/06/14 02:19:52;;;;;;;1.92;0.90;;;16.50;87.60;;;;;;4987804;28;20104;-71
2023/06/14 02:22:18;;;;;;;1.33;0.70;;;16.40;87.70;;;;;;4998198;28;20045;-71
2023/06/14 02:24:43;;;;;;;1.30;0.75;;;16.40;87.90;;;;;;4976566;28;20164;-71
2023/06/14 02:27:10;;;;;;;4.40;0.90;;;16.40;88.10;;;;;;4985407;28;20073;-71
2023/06/14 02:29:36;;;;;;;0.73;0.70;;;16.30;88.20;;;;;;5007953;28;20121;-70
2023/06/14 02:32:03;;;;;;;1.65;0.80;;;16.30;88.50;;;;;;5006293;28;20567;-70
2023/06/14 02:34:28;;;;;;;1.65;0.63;;;16.30;88.50;;;;;;5006689;28;20536;-70
2023/06/14 02:36:55;;;;;;;4.53;1.00;;;16.30;88.60;;;;;;5006090;28;20053;-71
2023/06/14 02:39:23;;;;;;;1.17;0.85;;;16.20;88.80;;;;;;5006795;28;20722;-71
2023/06/14 02:41:49;;;;;;;3.13;1.00;;;16.20;88.80;;;;;;5006506;28;20046;-71
2023/06/14 02:44:17;;;;;;;1.80;0.60;;;16.20;88.80;;;;;;5005912;28;20101;-71
2023/06/14 02:46:43;;;;;;;1.27;0.93;;;16.20;88.90;;;;;;5007705;28;20531;-70
2023/06/14 02:49:09;;;;;;;1.00;0.68;;;16.20;89.20;;;;;;5007369;28;20092;-70
2023/06/14 02:51:35;;;;;;;2.20;1.00;;;16.10;89.30;;;;;;5005819;28;20078;-70
2023/06/14 02:54:01;;;;;;;3.10;0.98;;;16.10;89.40;;;;;;5006053;28;20131;-71
2023/06/14 02:56:27;;;;;;;1.52;1.02;;;16.10;89.80;;;;;;5008247;28;20042;-70
2023/06/14 02:58:53;;;;;;;1.08;0.95;;;16.10;89.90;;;;;;5007677;28;20060;-70
2023/06/14 03:01:20;;;;;;;1.25;0.80;;;16.00;89.80;;;;;;4999270;28;20128;-70
2023/06/14 03:03:46;;;;;;;1.95;0.68;;;16.00;90.00;;;;;;4993279;28;20535;-70
2023/06/14 03:06:13;;;;;;;1.13;0.88;;;16.00;90.10;;;;;;5005485;28;20049;-71
2023/06/14 03:08:41;;;;;;;2.00;1.13;;;16.00;90.30;;;;;;5006227;28;20125;-70
2023/06/14 03:11:07;;;;;;;2.00;1.10;;;15.90;90.10;;;;;;5006922;28;20050;-70
2023/06/14 03:13:34;;;;;;;1.40;1.30;;;15.90;90.30;;;;;;5006920;28;20508;-71
2023/06/14 03:16:02;;;;;;;3.17;1.00;;;15.90;90.30;;;;;;5006840;28;20463;-72
2023/06/14 03:18:30;;;;;;;1.77;1.02;;;15.90;90.60;;;;;;5007476;28;20092;-70
2023/06/14 03:20:57;;;;;;;2.17;1.30;;;15.80;90.50;;;;;;5005758;28;20046;-70
2023/06/14 03:23:25;;;;;;;2.35;1.05;;;15.80;90.50;;;;;;5004317;28;20077;-70
2023/06/14 03:25:51;;;;;;;2.75;0.85;;;15.80;90.50;;;;;;5007274;28;20487;-70
2023/06/14 03:28:17;;;;;;;1.33;1.08;;;15.80;90.70;;;;;;5005667;28;20077;-71
2023/06/14 03:30:43;;;;;;;2.50;1.05;;;15.70;90.80;;;;;;5006897;28;20038;-70
2023/06/14 03:33:09;;;;;;;1.20;1.00;;;15.70;90.70;;;;;;5005216;28;20415;-70
2023/06/14 03:35:35;;;;;;;2.35;1.20;;;15.70;90.80;;;;;;5005126;28;20492;-70
2023/06/14 03:38:00;;;;;;;3.80;1.15;;;15.70;90.80;;;;;;5005512;28;20065;-71
2023/06/14 03:40:27;;;;;;;2.42;1.45;;;15.70;90.80;;;;;;5006830;28;20042;-71
2023/06/14 03:42:54;;;;;;;4.28;0.80;;;15.70;91.20;;;;;;5005207;28;20096;-71
2023/06/14 03:45:20;;;;;;;2.58;1.10;;;15.70;91.10;;;;;;5006232;28;20053;-70
2023/06/14 03:47:46;;;;;;;3.72;1.08;;;15.70;91.10;;;;;;5006690;28;20038;-70
2023/06/14 03:50:12;;;;;;;2.83;1.30;;;15.70;91.00;;;;;;4988287;28;20046;-71
2023/06/14 03:52:38;;;;;;;2.15;1.25;;;15.60;91.20;;;;;;5005456;28;20438;-71
2023/06/14 03:55:04;;;;;;;3.35;0.88;;;15.60;91.30;;;;;;5006078;28;20045;-71
2023/06/14 03:57:30;;;;;;;1.67;1.10;;;15.60;91.30;;;;;;5005021;28;20140;-72
2023/06/14 03:59:56;;;;;;;1.13;0.80;;;15.60;91.30;;;;;;4989169;28;20038;-71
2023/06/14 04:02:22;;;;;;;0.98;0.98;;;15.60;91.30;;;;;;5005725;28;20041;-70
2023/06/14 04:04:48;;;;;;;2.55;1.35;;;15.60;91.50;;;;;;5004544;28;20042;-71
2023/06/14 04:07:15;;;;;;;1.70;1.05;;;15.60;91.50;;;;;;5005845;28;20061;-70
2023/06/14 04:09:41;;;;;;;1.23;0.90;;;15.60;91.70;;;;;;5005042;28;20042;-71
2023/06/14 04:12:08;;;;;;;1.50;1.00;;;15.60;91.50;;;;;;5005910;28;20501;-70
2023/06/14 04:14:34;;;;;;;1.63;1.20;;;15.60;91.60;;;;;;5004323;28;20133;-70
2023/06/14 04:17:00;;;;;;;2.40;1.10;;;15.60;91.70;;;;;;5004191;28;20081;-71
2023/06/14 04:19:26;;;;;;;1.25;1.00;;;15.60;91.70;;;;;;5006053;28;20754;-70
2023/06/14 04:21:52;;;;;;;2.90;1.13;;;15.60;91.80;;;;;;5005506;28;20034;-70
2023/06/14 04:24:17;;;;;;;2.33;1.30;;;15.60;91.80;;;;;;5003838;28;20042;-71
2023/06/14 04:26:44;;;;;;;2.63;1.88;;;15.60;91.80;;;;;;5005750;28;20037;-70
2023/06/14 04:29:14;;;;;;;1.70;1.15;;;15.60;92.00;;;;;;5003561;28;20075;-70
2023/06/14 04:31:44;;;;;;;1.65;1.20;;;15.60;91.80;;;;;;5005337;28;20041;-71
2023/06/14 04:34:16;;;;;;;3.53;1.40;;;15.70;92.10;;;;;;5005068;28;20045;-70
2023/06/14 04:36:49;;;;;;;3.03;1.00;;;15.70;91.90;;;;;;5005586;28;20420;-71
2023/06/14 04:39:17;;;;;;;1.10;0.95;;;15.70;92.10;;;;;;5004190;28;20041;-71
2023/06/14 04:41:43;;;;;;;1.17;1.08;;;15.70;92.10;;;;;;5004255;28;20085;-71
2023/06/14 04:44:09;;;;;;;1.85;1.23;;;15.70;92.10;;;;;;5005443;28;20076;-71
2023/06/14 04:46:45;;;;;;;2.25;1.75;;;15.70;92.10;;;;;;5005483;28;20050;-70
2023/06/14 04:49:17;;;;;;;2.33;1.50;;;15.70;92.10;;;;;;4984174;28;20113;-72
2023/06/14 04:51:44;;;;;;;1.92;1.77;;;15.70;92.20;;;;;;5000080;28;20500;-72
2023/06/14 04:54:13;;;;;;;2.25;1.52;;;15.70;92.30;;;;;;5002642;28;20416;-72
2023/06/14 04:56:39;;;;;;;3.22;1.23;;;15.70;92.20;;;;;;5003841;28;20139;-73
2023/06/14 04:59:05;;;;;;;3.25;1.00;;;15.70;92.30;;;;;;5004268;28;20125;-72
2023/06/14 05:01:34;;;;;;;2.33;1.48;;;15.80;92.20;;;;;;4995629;28;20425;-71
2023/06/14 05:03:59;;;;;;;2.50;1.40;;;15.80;92.60;;;;;;4985677;28;20068;-72
2023/06/14 05:06:28;;;;;;;1.98;1.10;;;15.80;92.40;;;;;;5000452;28;20045;-71
2023/06/14 05:08:54;;;;;;;2.85;1.33;;;15.80;92.40;;;;;;5002966;28;20053;-71
2023/06/14 05:11:20;;;;;;;2.22;1.50;;;15.80;92.40;;;;;;5002800;28;20555;-70
2023/06/14 05:13:46;;;;;;;2.15;1.92;;;15.90;92.50;;;;;;4997769;28;20042;-71
2023/06/14 05:16:16;;;;;;;2.78;1.02;;;15.90;92.50;;;;;;4994225;28;20054;-71
2023/06/14 05:18:42;;;;;;;1.70;1.60;;;15.90;92.60;;;;;;4983933;28;20093;-71
2023/06/14 05:21:08;;;;;;;3.85;1.27;;;15.90;92.50;;;;;;4987341;28;20046;-70
2023/06/14 05:23:34;;;;;;;2.28;1.40;;;16.00;92.50;;;;;;4993079;28;20743;-71
2023/06/14 05:26:02;;;;;;;1.95;1.50;;;16.00;92.50;;;;;;5015076;28;20098;-72
2023/06/14 05:28:28;;;;;;;1.67;1.40;;;16.10;92.60;;;;;;4988407;28;20046;-70
2023/06/14 05:30:53;;;;;;;4.20;1.27;;;16.10;92.60;;;;;;4992117;28;20042;-71
2023/06/14 05:33:19;;;;;;;3.78;1.48;;;16.10;92.60;;;;;;5004692;28;20445;-70
2023/06/14 05:35:45;;;;;;;1.98;1.65;;;16.20;92.60;;;;;;5002232;28;20046;-71
2023/06/14 05:38:10;;;;;;;2.97;1.35;;;16.20;92.70;;;;;;5003107;28;20524;-71
2023/06/14 05:40:36;;;;;;;2.13;1.42;;;16.20;92.60;;;;;;4998045;28;20045;-70
2023/06/14 05:43:02;;;;;;;3.97;1.50;;;16.20;92.70;;;;;;4992388;28;20042;-72
2023/06/14 05:45:27;;;;;;;3.53;1.60;;;16.30;92.80;;;;;;5002170;28;20060;-71
2023/06/14 05:47:54;;;;;;;4.78;1.70;;;16.30;92.80;;;;;;4988053;28;20057;-71
2023/06/14 05:50:20;;;;;;;1.55;1.45;;;16.40;92.80;;;;;;4983654;28;20693;-71
2023/06/14 05:52:46;;;;;;;4.50;1.33;;;16.40;92.60;;;;;;5002268;28;20048;-71
2023/06/14 05:55:12;;;;;;;2.60;1.38;;;16.50;92.70;;;;;;5005533;28;20052;-73
2023/06/14 05:57:38;;;;;;;3.78;1.63;;;16.50;92.60;;;;;;5007051;28;20034;-73
2023/06/14 06:00:15;;;;;;;2.17;1.30;;;16.60;92.70;;;;;;4989511;28;20049;-71
2023/06/14 06:02:43;;;;;;;1.70;1.58;;;16.60;92.80;;;;;;5003324;28;20121;-71
2023/06/14 06:05:09;;;;;;;2.22;1.20;;;16.70;92.70;;;;;;5004947;28;20065;-71
2023/06/14 06:07:35;;;;;;;2.33;1.55;;;16.70;92.70;;;;;;5002740;28;20057;-71
2023/06/14 06:10:00;;;;;;;4.50;1.52;;;16.70;92.70;;;;;;5014318;28;20037;-71
2023/06/14 06:12:26;;;;;;;2.72;1.60;;;16.80;92.80;;;;;;5016517;28;20038;-71
2023/06/14 06:14:51;;;;;;;1.67;1.27;;;16.90;92.70;;;;;;4993083;28;20519;-71
2023/06/14 06:17:17;;;;;;;1.70;1.27;;;16.90;92.70;;;;;;4990603;28;20054;-71
2023/06/14 06:19:42;;;;;;;6.72;1.90;;;17.00;92.70;;;;;;5012120;28;20505;-71
2023/06/14 06:22:08;;;;;;;2.88;1.83;;;17.00;92.70;;;;;;4976525;28;20046;-71
2023/06/14 06:24:34;;;;;;;1.95;1.30;;;17.10;92.60;;;;;;5005651;28;20125;-71
2023/06/14 06:27:00;;;;;;;2.17;1.25;;;17.10;92.80;;;;;;5005216;28;20056;-73
2023/06/14 06:29:26;;;;;;;5.07;1.88;;;17.20;92.70;;;;;;5007937;28;20042;-71
2023/06/14 06:31:51;;;;;;;1.73;1.63;;;17.20;92.50;;;;;;5003213;28;20045;-70
2023/06/14 06:34:17;;;;;;;4.32;1.33;;;17.30;92.40;;;;;;4991226;28;20061;-71
2023/06/14 06:36:42;;;;;;;1.77;1.20;;;17.30;92.30;;;;;;4996390;28;20049;-71
2023/06/14 06:39:11;;;;;;;1.75;1.30;;;17.40;92.30;;;;;;5021578;28;20081;-71
2023/06/14 06:41:39;;;;;;;1.40;1.30;;;17.40;92.30;;;;;;5006461;28;20041;-70
2023/06/14 06:44:10;;;;;;;1.27;1.10;;;17.50;92.30;;;;;;4998890;28;20038;-70
2023/06/14 06:46:39;;;;;;;2.80;1.48;;;17.60;92.30;;;;;;5007243;28;20049;-68
2023/06/14 06:49:06;;;;;;;2.22;1.27;;;17.60;92.10;;;;;;5006461;28;20042;-68
2023/06/14 06:51:31;;;;;;;1.15;1.00;;;17.70;92.10;;;;;;5006761;28;20037;-71
2023/06/14 06:53:58;;;;;;;1.65;1.35;;;17.70;92.10;;;;;;5004771;28;20050;-78
2023/06/14 06:56:24;;;;;;;5.05;1.65;;;17.70;91.90;;;;;;5002955;28;20274;-77
2023/06/14 06:58:50;;;;;;;1.48;1.08;;;17.80;91.90;;;;;;4997460;28;20081;-80
2023/06/14 07:01:16;;;;;;;3.05;1.30;;;17.80;91.90;;;;;;4979292;28;20054;-76
2023/06/14 07:03:42;;;;;;;5.60;1.20;;;17.90;92.20;;;;;;4987807;28;20480;-74
2023/06/14 07:06:08;;;;;;;2.78;1.50;;;18.00;91.70;;;;;;5002608;28;20057;-74
2023/06/14 07:08:34;;;;;;;1.63;1.38;;;18.00;91.70;;;;;;5002943;28;20038;-76
2023/06/14 07:10:59;;;;;;;2.47;1.40;;;18.10;91.70;;;;;;4998435;28;20053;-74
2023/06/14 07:13:25;;;;;;;2.38;1.08;;;18.00;91.60;;;;;;5000668;28;20440;-74
2023/06/14 07:15:53;;;;;;;1.63;1.30;;;18.20;91.60;;;;;;5002962;28;20045;-74
2023/06/14 07:18:20;;;;;;;2.65;1.27;;;18.20;91.60;;;;;;4999231;28;20508;-77
2023/06/14 07:20:47;;;;;;;1.25;1.05;;;18.30;91.60;;;;;;5004042;28;20072;-70
2023/06/14 07:23:12;;;;;;;1.70;1.38;;;18.30;91.60;;;;;;4985091;28;20521;-71
2023/06/14 07:25:38;;;;;;;3.45;1.30;;;18.40;91.50;;;;;;4986001;28;20097;-72
2023/06/14 07:28:04;;;;;;;1.23;1.13;;;18.50;91.40;;;;;;4968410;28;20042;-72
2023/06/14 07:30:30;;;;;;;3.25;1.45;;;18.50;91.30;;;;;;4986215;28;20074;-73
2023/06/14 07:32:55;;;;;;;1.63;1.20;;;18.50;91.30;;;;;;4984812;28;20537;-71
2023/06/14 07:35:21;;;;;;;1.20;1.05;;;18.60;91.20;;;;;;4984391;28;20543;-71
2023/06/14 07:37:47;;;;;;;1.15;1.00;;;18.60;91.20;;;;;;4985057;28;20097;-72
2023/06/14 07:40:13;;;;;;;1.73;1.63;;;18.60;91.10;;;;;;4985865;28;20078;-72
2023/06/14 07:42:39;;;;;;;3.65;1.20;;;18.70;91.10;;;;;;4985735;28;20038;-71
2023/06/14 07:45:06;;;;;;;2.10;1.52;;;18.70;91.00;;;;;;4985942;28;20042;-71
2023/06/14 07:47:32;;;;;;;2.60;1.00;;;18.70;91.10;;;;;;4985538;28;20097;-71
2023/06/14 07:49:58;;;;;;;1.90;1.00;;;18.80;91.10;;;;;;4985811;28;20039;-71
2023/06/14 07:52:23;;;;;;;1.85;1.30;;;18.90;91.10;;;;;;4984406;28;20126;-71
2023/06/14 07:54:49;;;;;;;1.67;1.10;;;18.90;91.10;;;;;;4985885;28;20073;-71
2023/06/14 07:57:14;;;;;;;1.55;1.20;;;18.90;91.00;;;;;;4967454;28;20050;-71
2023/06/14 07:59:40;;;;;;;2.72;1.10;;;19.00;90.90;;;;;;4984072;28;20042;-71
2023/06/14 08:02:06;;;;;;;3.00;1.10;;;19.00;90.90;;;;;;4996751;28;20543;-71
2023/06/14 08:04:32;;;;;;;1.73;1.25;;;19.10;90.80;;;;;;5004856;28;20484;-71
2023/06/14 08:07:01;;;;;;;1.83;1.73;;;19.10;90.70;;;;;;5003505;28;20087;-71
2023/06/14 08:09:28;;;;;;;1.63;1.00;;;19.20;90.70;;;;;;4987734;28;20042;-72
2023/06/14 08:11:54;;;;;;;1.00;0.90;;;19.20;90.50;;;;;;5002918;28;20061;-71
2023/06/14 08:14:20;;;;;;;1.55;1.10;;;19.30;90.50;;;;;;5002430;28;20050;-71
2023/06/14 08:16:45;;;;;;;1.40;1.10;;;19.40;90.50;;;;;;5004503;28;20100;-71
2023/06/14 08:19:11;;;;;;;2.90;1.30;;;19.40;90.50;;;;;;5004324;28;20038;-71
2023/06/14 08:21:37;;;;;;;1.40;1.30;;;19.40;90.40;;;;;;5003442;28;20385;-71
2023/06/14 08:24:03;;;;;;;1.95;1.20;;;19.50;90.30;;;;;;5002095;28;20448;-71
2023/06/14 08:26:29;;;;;;;1.42;0.93;;;19.50;90.10;;;;;;5004704;28;20087;-71
2023/06/14 08:28:56;;;;;;;0.95;0.90;;;19.50;90.10;;;;;;5003834;28;20060;-71
2023/06/14 08:31:22;;;;;;;1.30;1.13;;;19.60;90.00;;;;;;5002650;28;20053;-71
2023/06/14 08:33:47;;;;;;;1.15;1.00;;;19.70;90.00;;;;;;5004658;28;20133;-71
2023/06/14 08:36:13;;;;;;;1.92;0.90;;;19.70;89.80;;;;;;5003258;28;20125;-71
2023/06/14 08:38:39;;;;;;;1.88;1.10;;;19.80;89.80;;;;;;5001695;28;20037;-71
2023/06/14 08:41:07;;;;;;;2.53;1.10;;;19.80;89.60;;;;;;5003934;28;20080;-71
2023/06/14 08:43:33;;;;;;;2.97;1.08;;;19.90;89.50;;;;;;5004135;28;20073;-72
2023/06/14 08:46:02;;;;;;;3.80;1.10;;;19.90;89.70;;;;;;5004690;28;20042;-71
2023/06/14 08:48:28;;;;;;;1.60;1.00;;;19.90;89.60;;;;;;5004589;28;20042;-71
2023/06/14 08:51:01;;;;;;;2.60;1.23;;;20.00;89.40;;;;;;5004399;28;20046;-71
2023/06/14 08:53:31;;;;;;;1.20;0.98;;;20.00;89.00;;;;;;5003499;28;20073;-71
2023/06/14 08:56:01;;;;;;;1.48;1.15;;;20.00;89.00;;;;;;5003114;28;20091;-71
2023/06/14 08:58:31;;;;;;;1.65;1.20;;;20.10;88.90;;;;;;5004233;28;20541;-71
2023/06/14 09:00:58;;;;;;;2.03;1.20;;;20.10;89.00;;;;;;4999292;28;20242;-71
2023/06/14 09:03:29;;;;;;;2.33;1.65;;;20.10;88.80;;;;;;4984202;28;20054;-71
2023/06/14 09:06:00;;;;;;;3.25;1.42;;;20.20;88.90;;;;;;4984667;28;20256;-71
2023/06/14 09:08:30;;;;;;;2.10;1.13;;;20.20;88.80;;;;;;4982604;28;20048;-71
2023/06/14 09:10:56;;;;;;;2.15;1.00;;;20.20;88.70;;;;;;4983378;28;20054;-71
2023/06/14 09:13:22;;;;;;;1.63;1.20;;;20.30;88.80;;;;;;4983764;28;20043;-71
2023/06/14 09:15:47;;;;;;;3.22;1.30;;;20.40;88.70;;;;;;4983998;28;20213;-71
2023/06/14 09:18:13;;;;;;;1.98;1.10;;;20.40;88.60;;;;;;4983940;28;20038;-72
2023/06/14 09:20:40;;;;;;;1.67;0.90;;;20.40;88.30;;;;;;4984549;28;20485;-71
2023/06/14 09:23:06;;;;;;;0.88;0.80;;;20.40;88.20;;;;;;4982984;28;20034;-71
2023/06/14 09:25:41;;;;;;;2.25;1.25;;;20.50;88.30;;;;;;4965871;28;20089;-71
2023/06/14 09:28:08;;;;;;;1.85;1.02;;;20.50;88.20;;;;;;4982629;28;20125;-71
2023/06/14 09:30:33;;;;;;;1.73;1.30;;;20.60;88.20;;;;;;4983032;28;20493;-71
2023/06/14 09:32:59;;;;;;;1.38;1.27;;;20.60;86.90;;;;;;4982744;28;20049;-71
2023/06/14 09:35:25;;;;;;;1.30;1.20;;;20.60;88.20;;;;;;4983205;28;20693;-71
2023/06/14 09:37:50;;;;;;;2.25;1.27;;;20.60;87.30;;;;;;4982840;28;20050;-72
2023/06/14 09:40:21;;;;;;;1.65;1.13;;;20.70;87.30;;;;;;4982488;28;20097;-71
2023/06/14 09:42:47;;;;;;;2.30;1.00;;;20.70;87.20;;;;;;4984011;28;20509;-71
2023/06/14 09:45:13;;;;;;;3.97;1.30;;;20.70;87.50;;;;;;4982895;28;20043;-71
2023/06/14 09:47:40;;;;;;;2.30;0.98;;;20.70;87.80;;;;;;4983108;28;20051;-71
2023/06/14 09:50:06;;;;;;;3.75;1.08;;;20.80;87.70;;;;;;4982758;28;20545;-71
2023/06/14 09:52:32;;;;;;;4.05;1.23;;;20.80;87.50;;;;;;4982709;28;20038;-72
2023/06/14 09:54:59;;;;;;;1.20;1.10;;;20.90;87.20;;;;;;4982768;28;20090;-71
2023/06/14 09:57:26;;;;;;;1.25;0.93;;;20.90;86.50;;;;;;4983109;28;20125;-71
2023/06/14 10:00:00;;;;;;;1.30;0.90;;;20.90;86.40;;;;;;4984171;28;20126;-71
2023/06/14 10:02:28;;;;;;;1.77;1.00;;;20.90;86.00;;;;;;4998702;28;20076;-71
2023/06/14 10:05:03;;;;;;;1.60;1.23;;;21.00;86.40;;;;;;5001818;28;20532;-72
2023/06/14 10:07:32;;;;;;;1.23;0.90;;;21.00;84.40;;;;;;5001860;28;20433;-71
2023/06/14 10:09:58;;;;;;;3.00;1.30;;;21.00;86.00;;;;;;5002283;28;20242;-71
2023/06/14 10:12:24;;;;;;;1.50;0.90;;;21.00;85.90;;;;;;4984785;28;20057;-72
2023/06/14 10:14:53;;;;;;;1.33;1.10;;;21.10;85.60;;;;;;5002635;28;20101;-72
2023/06/14 10:17:55;;;;;;;1.33;1.00;;;21.20;85.30;;;;;;4995412;28;20062;-71
2023/06/14 10:20:45;;;;;;;1.30;1.08;;;21.30;82.60;;;;;;4996994;28;20077;-71
2023/06/14 10:23:18;;;;;;;2.05;1.30;;;21.20;82.80;;;;;;4998897;28;20115;-71
2023/06/14 10:25:44;;;;;;;1.20;1.10;;;21.30;84.60;;;;;;5001725;28;20496;-71
2023/06/14 10:28:22;;;;;;;3.08;1.45;;;21.40;85.20;;;;;;5002589;28;20045;-70
2023/06/14 10:31:12;;;;;;;2.75;1.02;;;21.40;84.70;;;;;;4997850;28;20034;-69
2023/06/14 10:33:56;;;;;;;2.60;1.02;;;21.40;82.70;;;;;;4983356;28;20198;-70
2023/06/14 10:36:31;;;;;;;3.22;1.65;;;21.50;81.20;;;;;;4983241;28;20054;-70
2023/06/14 10:39:16;;;;;;;4.32;1.23;;;21.50;82.00;;;;;;5002075;28;20076;-71
2023/06/14 10:41:54;;;;;;;1.63;0.95;;;21.60;81.20;;;;;;5006537;28;20203;-71
2023/06/14 10:44:19;;;;;;;1.23;0.95;;;21.60;83.00;;;;;;4983492;28;20555;-72
2023/06/14 10:46:55;;;;;;;1.73;1.08;;;21.60;84.40;;;;;;5007416;28;20151;-72
2023/06/14 10:49:44;;;;;;;3.70;0.98;;;21.60;83.80;;;;;;5005096;28;20129;-72
2023/06/14 10:52:16;;;;;;;1.15;0.90;;;21.60;81.10;;;;;;4986974;28;20033;-72
2023/06/14 10:55:01;;;;;;;2.03;1.30;;;21.60;84.20;;;;;;5007475;28;20050;-71
2023/06/14 10:57:26;;;;;;;0.88;0.85;;;21.70;82.40;;;;;;5006895;28;20050;-72
2023/06/14 10:59:52;;;;;;;1.55;1.08;;;21.70;84.40;;;;;;5006525;28;20167;-72
2023/06/14 11:03:04;;;;;;;2.17;1.05;;;21.70;84.50;;;;;;4989887;28;20408;-72
2023/06/14 11:05:30;;;;;;;2.20;0.98;;;21.70;81.30;;;;;;4984859;28;20053;-74
2023/06/14 11:08:25;;;;;;;2.22;1.58;;;21.80;84.30;;;;;;4996861;28;20087;-74
2023/06/14 11:10:54;;;;;;;2.65;1.00;;;21.80;80.00;;;;;;5000643;28;20046;-82
2023/06/14 11:13:20;;;;;;;2.97;1.42;;;21.90;84.30;;;;;;5004163;28;20088;-79
2023/06/14 11:15:47;;;;;;;2.22;1.27;;;21.90;84.30;;;;;;5004640;28;20054;-75
2023/06/14 11:18:15;;;;;;;1.02;0.90;;;21.90;85.00;;;;;;5006114;28;20113;-74
2023/06/14 11:20:40;;;;;;;1.67;1.38;;;21.90;84.20;;;;;;4994940;28;20066;-73
2023/06/14 11:23:06;;;;;;;2.35;1.50;;;21.90;84.60;;;;;;4984003;28;20606;-71
2023/06/14 11:25:32;;;;;;;2.75;1.08;;;21.90;84.20;;;;;;5018965;28;20037;-71
2023/06/14 11:27:58;;;;;;;3.10;1.20;;;21.90;84.30;;;;;;5024541;28;20450;-71
2023/06/14 11:30:25;;;;;;;1.88;1.38;;;22.00;84.40;;;;;;5004547;28;20053;-71
2023/06/14 11:32:52;;;;;;;1.65;0.93;;;22.00;84.70;;;;;;5006119;28;20133;-71
2023/06/14 11:35:22;;;;;;;3.33;1.10;;;22.00;84.40;;;;;;4987616;28;20054;-71
2023/06/14 11:37:48;;;;;;;1.55;0.93;;;22.10;84.30;;;;;;5003448;28;20042;-71
2023/06/14 11:40:14;;;;;;;3.60;1.10;;;22.10;84.00;;;;;;5004627;28;20452;-71
2023/06/14 11:42:41;;;;;;;1.98;1.27;;;22.10;83.50;;;;;;5024674;28;20361;-71
2023/06/14 11:45:11;;;;;;;1.55;1.02;;;22.10;83.70;;;;;;5025298;28;20076;-71
2023/06/14 11:47:39;;;;;;;1.83;1.40;;;22.10;82.80;;;;;;5008219;28;20103;-71
2023/06/14 11:50:06;;;;;;;2.30;1.20;;;22.10;83.70;;;;;;5023005;28;20050;-71
2023/06/14 11:52:32;;;;;;;1.63;1.05;;;22.20;83.80;;;;;;5019368;28;20038;-72
2023/06/14 11:54:58;;;;;;;1.35;1.08;;;22.10;83.50;;;;;;4972136;28;20049;-71
2023/06/14 11:57:25;;;;;;;2.70;1.30;;;22.20;83.70;;;;;;4983476;28;20105;-71
2023/06/14 11:59:51;;;;;;;3.50;1.75;;;22.20;83.90;;;;;;4983209;28;20475;-71
2023/06/14 12:02:19;;;;;;;2.22;1.55;;;22.30;83.90;;;;;;4998410;28;20072;-71
2023/06/14 12:04:48;;;;;;;1.77;1.40;;;22.30;83.30;;;;;;5003793;28;20065;-71
2023/06/14 12:07:19;;;;;;;1.65;1.40;;;22.30;82.90;;;;;;5003598;28;20045;-71
2023/06/14 12:09:54;;;;;;;8.73;1.58;;;22.30;82.30;;;;;;5004091;28;20049;-71
2023/06/14 12:12:25;;;;;;;1.02;1.00;;;22.30;81.50;;;;;;5001024;28;20161;-71
2023/06/14 12:14:51;;;;;;;1.13;1.03;;;22.40;82.90;;;;;;4986626;28;20061;-71
2023/06/14 12:17:18;;;;;;;1.63;1.40;;;22.40;83.30;;;;;;5001901;28;20301;-71
2023/06/14 12:19:49;;;;;;;1.88;1.05;;;22.40;83.10;;;;;;4996117;28;20073;-71
2023/06/14 12:22:14;;;;;;;7.35;2.40;;;22.50;83.10;;;;;;4983952;28;20050;-71
2023/06/14 12:24:43;;;;;;;1.60;1.50;;;22.50;83.00;;;;;;4993786;28;20192;-71
2023/06/14 12:27:11;;;;;;;2.38;1.20;;;22.50;82.50;;;;;;4988703;28;20050;-71
2023/06/14 12:29:37;;;;;;;1.42;1.25;;;22.50;82.70;;;;;;4967119;28;20377;-71
2023/06/14 12:32:03;;;;;;;3.60;0.95;;;22.60;82.90;;;;;;4995224;28;20072;-71
2023/06/14 12:34:28;;;;;;;0.85;0.85;;;22.70;82.80;;;;;;4988543;28;20038;-71
2023/06/14 12:36:54;;;;;;;2.03;1.05;;;22.70;82.60;;;;;;4996501;28;20083;-71
2023/06/14 12:39:20;;;;;;;3.63;1.23;;;22.70;82.30;;;;;;5003115;28;20049;-71
2023/06/14 12:41:46;;;;;;;0.65;0.65;;;22.70;81.90;;;;;;5004825;28;20389;-71
2023/06/14 12:44:13;;;;;;;3.17;1.20;;;22.70;81.60;;;;;;4997839;28;20038;-72
2023/06/14 12:46:39;;;;;;;1.45;1.33;;;22.70;82.40;;;;;;4989776;28;20250;-71
2023/06/14 12:49:06;;;;;;;3.50;1.10;;;22.70;81.60;;;;;;5013726;28;20038;-72
2023/06/14 12:51:32;;;;;;;1.35;1.25;;;22.80;81.50;;;;;;4999206;28;20038;-72